aviador You're here:

MMEP Decoded Metar

TEPIC in MEXICO
Report Time2017-11-23 02:53:00
UTC Time2017-11-23 03:43:17
Flight Rules vfr VFR
WindCalm
Visibility9999 m
Phenomena:Patches Fog
Clouds:N/A
Expected CloudBase > 400 ft AGL from Temp-Dew spread
CeilingNone
Temp18°C (ISA +9)
Dew Point17°C (94% RH)
QNH1019 hPa
Density Alt4,147 ft
Elevation3,025 ft
Report Wrong Elevation
Raw Report
MMEP 230253Z 00000KT 8SM SKC 18/17 A3008 RMK SLP184 52018 908 BCFG
W=

Extra information for MMEP:More info

Metar Taf Metar & Taf Last 4 Metars F.Rules Stats Wind Profile Meteogram Temp Stats Airport Information Weather charts Add Link Nearby VenuesMetar ALERT Operation Metar Decoded Social comments